sensor_id;sensor_type;location;lat;lon;timestamp;temperature;humidity
38910;DHT22;24676;51.360;12.354;2023-12-04T00:02:17;-3.60;99.90
38910;DHT22;24676;51.360;12.354;2023-12-04T00:05:02;-3.60;99.90
38910;DHT22;24676;51.360;12.354;2023-12-04T00:07:46;-3.60;99.90
38910;DHT22;24676;51.360;12.354;2023-12-04T00:10:30;-3.60;99.90
38910;DHT22;24676;51.360;12.354;2023-12-04T00:13:14;-3.60;99.90
38910;DHT22;24676;51.360;12.354;2023-12-04T00:15:58;-3.60;99.90
38910;DHT22;24676;51.360;12.354;2023-12-04T00:18:42;-3.60;99.90
38910;DHT22;24676;51.360;12.354;2023-12-04T00:21:26;-3.60;99.90
38910;DHT22;24676;51.360;12.354;2023-12-04T00:24:11;-3.60;99.90
38910;DHT22;24676;51.360;12.354;2023-12-04T00:26:55;-3.60;99.90
38910;DHT22;24676;51.360;12.354;2023-12-04T00:29:39;-3.60;99.90
38910;DHT22;24676;51.360;12.354;2023-12-04T00:32:23;-3.70;99.90
38910;DHT22;24676;51.360;12.354;2023-12-04T00:35:08;-3.70;99.90
38910;DHT22;24676;51.360;12.354;2023-12-04T00:37:52;-3.70;99.90
38910;DHT22;24676;51.360;12.354;2023-12-04T00:40:36;-3.70;99.90
38910;DHT22;24676;51.360;12.354;2023-12-04T00:43:20;-3.70;99.90
38910;DHT22;24676;51.360;12.354;2023-12-04T00:46:05;-3.70;99.90
38910;DHT22;24676;51.360;12.354;2023-12-04T00:48:49;-3.70;99.90
38910;DHT22;24676;51.360;12.354;2023-12-04T00:51:36;-3.70;99.90
38910;DHT22;24676;51.360;12.354;2023-12-04T00:54:21;-3.60;99.90
38910;DHT22;24676;51.360;12.354;2023-12-04T00:57:05;-3.60;99.90
38910;DHT22;24676;51.360;12.354;2023-12-04T00:59:49;-3.60;99.90
38910;DHT22;24676;51.360;12.354;2023-12-04T01:02:33;-3.60;99.90
38910;DHT22;24676;51.360;12.354;2023-12-04T01:05:17;-3.60;99.90
38910;DHT22;24676;51.360;12.354;2023-12-04T01:08:01;-3.60;99.90
38910;DHT22;24676;51.360;12.354;2023-12-04T01:10:46;-3.60;99.90
38910;DHT22;24676;51.360;12.354;2023-12-04T01:13:30;-3.50;99.90
38910;DHT22;24676;51.360;12.354;2023-12-04T01:16:14;-3.60;99.90
38910;DHT22;24676;51.360;12.354;2023-12-04T01:18:58;-3.60;99.90
38910;DHT22;24676;51.360;12.354;2023-12-04T01:21:42;-3.60;99.90
38910;DHT22;24676;51.360;12.354;2023-12-04T01:24:26;-3.50;99.90
38910;DHT22;24676;51.360;12.354;2023-12-04T01:27:11;-3.50;99.90
38910;DHT22;24676;51.360;12.354;2023-12-04T01:29:55;-3.50;99.90
38910;DHT22;24676;51.360;12.354;2023-12-04T01:32:39;-3.50;99.90
38910;DHT22;24676;51.360;12.354;2023-12-04T01:35:24;-3.50;99.90
38910;DHT22;24676;51.360;12.354;2023-12-04T01:38:10;-3.40;99.90
38910;DHT22;24676;51.360;12.354;2023-12-04T01:40:54;-3.40;99.90
38910;DHT22;24676;51.360;12.354;2023-12-04T01:43:38;-3.40;99.90
38910;DHT22;24676;51.360;12.354;2023-12-04T01:46:22;-3.40;99.90
38910;DHT22;24676;51.360;12.354;2023-12-04T01:49:06;-3.40;99.90
38910;DHT22;24676;51.360;12.354;2023-12-04T01:51:50;-3.40;99.90
38910;DHT22;24676;51.360;12.354;2023-12-04T01:54:34;-3.40;99.90
38910;DHT22;24676;51.360;12.354;2023-12-04T01:57:19;-3.30;99.90
38910;DHT22;24676;51.360;12.354;2023-12-04T02:00:04;-3.40;99.90
38910;DHT22;24676;51.360;12.354;2023-12-04T02:02:55;-3.40;99.90
38910;DHT22;24676;51.360;12.354;2023-12-04T02:05:39;-3.30;99.90
38910;DHT22;24676;51.360;12.354;2023-12-04T02:08:23;-3.30;99.90
38910;DHT22;24676;51.360;12.354;2023-12-04T02:11:07;-3.30;99.90
38910;DHT22;24676;51.360;12.354;2023-12-04T02:13:52;-3.30;99.90
38910;DHT22;24676;51.360;12.354;2023-12-04T02:16:38;-3.30;99.90
38910;DHT22;24676;51.360;12.354;2023-12-04T02:19:23;-3.20;99.90
38910;DHT22;24676;51.360;12.354;2023-12-04T02:22:07;-3.20;99.90
38910;DHT22;24676;51.360;12.354;2023-12-04T02:24:51;-3.20;99.90
38910;DHT22;24676;51.360;12.354;2023-12-04T02:27:44;-3.20;99.90
38910;DHT22;24676;51.360;12.354;2023-12-04T02:30:30;-3.20;99.90
38910;DHT22;24676;51.360;12.354;2023-12-04T02:33:15;-3.20;99.90
38910;DHT22;24676;51.360;12.354;2023-12-04T02:36:01;-3.30;99.90
38910;DHT22;24676;51.360;12.354;2023-12-04T02:38:46;-3.20;99.90
38910;DHT22;24676;51.360;12.354;2023-12-04T02:41:30;-3.20;99.90
38910;DHT22;24676;51.360;12.354;2023-12-04T02:44:14;-3.20;99.90
38910;DHT22;24676;51.360;12.354;2023-12-04T02:46:58;-3.30;99.90
38910;DHT22;24676;51.360;12.354;2023-12-04T02:49:42;-3.30;99.90
38910;DHT22;24676;51.360;12.354;2023-12-04T02:52:26;-3.30;99.90
38910;DHT22;24676;51.360;12.354;2023-12-04T02:55:10;-3.30;99.90
38910;DHT22;24676;51.360;12.354;2023-12-04T02:57:54;-3.30;99.90
38910;DHT22;24676;51.360;12.354;2023-12-04T03:00:39;-3.30;99.90
38910;DHT22;24676;51.360;12.354;2023-12-04T03:03:23;-3.20;99.90
38910;DHT22;24676;51.360;12.354;2023-12-04T03:06:07;-3.20;99.90
38910;DHT22;24676;51.360;12.354;2023-12-04T03:08:51;-3.30;99.90
38910;DHT22;24676;51.360;12.354;2023-12-04T03:11:38;-3.30;99.90
38910;DHT22;24676;51.360;12.354;2023-12-04T03:14:23;-3.30;99.90
38910;DHT22;24676;51.360;12.354;2023-12-04T03:17:07;-3.30;99.90
38910;DHT22;24676;51.360;12.354;2023-12-04T03:19:51;-3.20;99.90
38910;DHT22;24676;51.360;12.354;2023-12-04T03:22:36;-3.30;99.90
38910;DHT22;24676;51.360;12.354;2023-12-04T03:25:20;-3.30;99.90
38910;DHT22;24676;51.360;12.354;2023-12-04T03:28:04;-3.30;99.90
38910;DHT22;24676;51.360;12.354;2023-12-04T03:30:48;-3.30;99.90
38910;DHT22;24676;51.360;12.354;2023-12-04T03:33:32;-3.30;99.90
38910;DHT22;24676;51.360;12.354;2023-12-04T03:36:17;-3.30;99.90
38910;DHT22;24676;51.360;12.354;2023-12-04T03:39:01;-3.20;99.90
38910;DHT22;24676;51.360;12.354;2023-12-04T03:41:46;-3.30;99.90
38910;DHT22;24676;51.360;12.354;2023-12-04T03:44:30;-3.20;99.90
38910;DHT22;24676;51.360;12.354;2023-12-04T03:47:14;-3.20;99.90
38910;DHT22;24676;51.360;12.354;2023-12-04T03:49:58;-3.20;99.90
38910;DHT22;24676;51.360;12.354;2023-12-04T03:52:43;-3.20;99.90
38910;DHT22;24676;51.360;12.354;2023-12-04T03:55:27;-3.20;99.90
38910;DHT22;24676;51.360;12.354;2023-12-04T03:58:11;-3.20;99.90
38910;DHT22;24676;51.360;12.354;2023-12-04T04:00:55;-3.20;99.90
38910;DHT22;24676;51.360;12.354;2023-12-04T04:03:39;-3.20;99.90
38910;DHT22;24676;51.360;12.354;2023-12-04T04:06:23;-3.10;99.90
38910;DHT22;24676;51.360;12.354;2023-12-04T04:09:07;-3.10;99.90
38910;DHT22;24676;51.360;12.354;2023-12-04T04:11:51;-3.10;99.90
38910;DHT22;24676;51.360;12.354;2023-12-04T04:14:36;-3.10;99.90
38910;DHT22;24676;51.360;12.354;2023-12-04T04:17:20;-3.10;99.90
38910;DHT22;24676;51.360;12.354;2023-12-04T04:20:05;-3.00;99.90
38910;DHT22;24676;51.360;12.354;2023-12-04T04:22:49;-3.00;99.90
38910;DHT22;24676;51.360;12.354;2023-12-04T04:25:33;-3.00;99.90
38910;DHT22;24676;51.360;12.354;2023-12-04T04:28:17;-3.00;99.90
38910;DHT22;24676;51.360;12.354;2023-12-04T04:31:01;-3.00;99.90
38910;DHT22;24676;51.360;12.354;2023-12-04T04:33:45;-3.00;99.90
38910;DHT22;24676;51.360;12.354;2023-12-04T04:36:30;-3.00;99.90
38910;DHT22;24676;51.360;12.354;2023-12-04T04:39:14;-3.00;99.90
38910;DHT22;24676;51.360;12.354;2023-12-04T04:41:58;-3.00;99.90
38910;DHT22;24676;51.360;12.354;2023-12-04T04:44:42;-3.00;99.90
38910;DHT22;24676;51.360;12.354;2023-12-04T04:47:26;-3.00;99.90
38910;DHT22;24676;51.360;12.354;2023-12-04T04:50:11;-2.90;99.90
38910;DHT22;24676;51.360;12.354;2023-12-04T04:52:55;-2.90;99.90
38910;DHT22;24676;51.360;12.354;2023-12-04T04:55:39;-2.90;99.90
38910;DHT22;24676;51.360;12.354;2023-12-04T04:58:24;-2.90;99.90
38910;DHT22;24676;51.360;12.354;2023-12-04T05:01:08;-2.90;99.90
38910;DHT22;24676;51.360;12.354;2023-12-04T05:03:52;-2.90;99.90
38910;DHT22;24676;51.360;12.354;2023-12-04T05:06:36;-2.90;99.90
38910;DHT22;24676;51.360;12.354;2023-12-04T05:09:21;-2.90;99.90
38910;DHT22;24676;51.360;12.354;2023-12-04T05:12:05;-2.90;99.90
38910;DHT22;24676;51.360;12.354;2023-12-04T05:14:49;-2.90;99.90
38910;DHT22;24676;51.360;12.354;2023-12-04T05:17:33;-2.90;99.90
38910;DHT22;24676;51.360;12.354;2023-12-04T05:20:17;-2.90;99.90
38910;DHT22;24676;51.360;12.354;2023-12-04T05:23:01;-2.90;99.90
38910;DHT22;24676;51.360;12.354;2023-12-04T05:25:45;-2.80;99.90
38910;DHT22;24676;51.360;12.354;2023-12-04T05:28:30;-2.80;99.90
38910;DHT22;24676;51.360;12.354;2023-12-04T05:31:14;-2.80;99.90
38910;DHT22;24676;51.360;12.354;2023-12-04T05:33:58;-2.80;99.90
38910;DHT22;24676;51.360;12.354;2023-12-04T05:36:42;-2.80;99.90
38910;DHT22;24676;51.360;12.354;2023-12-04T05:39:27;-2.80;99.90
38910;DHT22;24676;51.360;12.354;2023-12-04T05:42:11;-2.80;99.90
38910;DHT22;24676;51.360;12.354;2023-12-04T05:44:55;-2.80;99.90
38910;DHT22;24676;51.360;12.354;2023-12-04T05:47:41;-2.70;99.90
38910;DHT22;24676;51.360;12.354;2023-12-04T05:50:25;-2.70;99.90
38910;DHT22;24676;51.360;12.354;2023-12-04T05:53:09;-2.70;99.90
38910;DHT22;24676;51.360;12.354;2023-12-04T05:55:53;-2.70;99.90
38910;DHT22;24676;51.360;12.354;2023-12-04T05:58:37;-2.50;99.90
38910;DHT22;24676;51.360;12.354;2023-12-04T06:01:21;-2.50;99.90
38910;DHT22;24676;51.360;12.354;2023-12-04T06:04:06;-2.50;99.90
38910;DHT22;24676;51.360;12.354;2023-12-04T06:06:50;-2.50;99.90
38910;DHT22;24676;51.360;12.354;2023-12-04T06:09:34;-2.50;99.90
38910;DHT22;24676;51.360;12.354;2023-12-04T06:12:20;-2.50;99.90
38910;DHT22;24676;51.360;12.354;2023-12-04T06:15:04;-2.60;99.90
38910;DHT22;24676;51.360;12.354;2023-12-04T06:17:48;-2.60;99.90
38910;DHT22;24676;51.360;12.354;2023-12-04T06:20:33;-2.60;99.90
38910;DHT22;24676;51.360;12.354;2023-12-04T06:23:17;-2.70;99.90
38910;DHT22;24676;51.360;12.354;2023-12-04T06:26:02;-2.70;99.90
38910;DHT22;24676;51.360;12.354;2023-12-04T06:28:46;-2.70;99.90
38910;DHT22;24676;51.360;12.354;2023-12-04T06:31:30;-2.70;99.90
38910;DHT22;24676;51.360;12.354;2023-12-04T06:34:14;-2.70;99.90
38910;DHT22;24676;51.360;12.354;2023-12-04T06:36:59;-2.70;99.90
38910;DHT22;24676;51.360;12.354;2023-12-04T06:39:44;-2.40;99.90
38910;DHT22;24676;51.360;12.354;2023-12-04T06:42:28;-2.30;99.90
38910;DHT22;24676;51.360;12.354;2023-12-04T06:45:13;-2.40;99.90
38910;DHT22;24676;51.360;12.354;2023-12-04T06:47:57;-2.30;99.90
38910;DHT22;24676;51.360;12.354;2023-12-04T06:50:43;-2.20;99.90
38910;DHT22;24676;51.360;12.354;2023-12-04T06:53:27;-2.30;99.90
38910;DHT22;24676;51.360;12.354;2023-12-04T06:56:11;-2.30;99.90
38910;DHT22;24676;51.360;12.354;2023-12-04T06:58:55;-2.40;99.90
38910;DHT22;24676;51.360;12.354;2023-12-04T07:01:39;-2.50;99.90
38910;DHT22;24676;51.360;12.354;2023-12-04T07:04:24;-2.50;99.90
38910;DHT22;24676;51.360;12.354;2023-12-04T07:07:08;-2.60;99.90
38910;DHT22;24676;51.360;12.354;2023-12-04T07:09:52;-2.50;99.90
38910;DHT22;24676;51.360;12.354;2023-12-04T07:12:36;-2.50;99.90
38910;DHT22;24676;51.360;12.354;2023-12-04T07:15:20;-2.50;99.90
38910;DHT22;24676;51.360;12.354;2023-12-04T07:18:04;-2.40;99.90
38910;DHT22;24676;51.360;12.354;2023-12-04T07:20:48;-2.30;99.90
38910;DHT22;24676;51.360;12.354;2023-12-04T07:23:32;-2.30;99.90
38910;DHT22;24676;51.360;12.354;2023-12-04T07:26:16;-2.10;99.90
38910;DHT22;24676;51.360;12.354;2023-12-04T07:29:01;-2.00;99.90
38910;DHT22;24676;51.360;12.354;2023-12-04T07:31:45;-2.00;99.90
38910;DHT22;24676;51.360;12.354;2023-12-04T07:34:30;-1.90;99.90
38910;DHT22;24676;51.360;12.354;2023-12-04T07:37:14;-1.90;99.90
38910;DHT22;24676;51.360;12.354;2023-12-04T07:39:58;-1.90;99.90
38910;DHT22;24676;51.360;12.354;2023-12-04T07:42:42;-1.80;99.90
38910;DHT22;24676;51.360;12.354;2023-12-04T07:45:26;-1.80;99.90
38910;DHT22;24676;51.360;12.354;2023-12-04T07:48:11;-1.70;99.90
38910;DHT22;24676;51.360;12.354;2023-12-04T07:50:55;-1.70;99.90
38910;DHT22;24676;51.360;12.354;2023-12-04T07:53:39;-1.60;99.90
38910;DHT22;24676;51.360;12.354;2023-12-04T07:56:24;-1.50;99.90
38910;DHT22;24676;51.360;12.354;2023-12-04T07:59:08;-1.40;99.90
38910;DHT22;24676;51.360;12.354;2023-12-04T08:01:53;-1.30;99.90
38910;DHT22;24676;51.360;12.354;2023-12-04T08:04:37;-1.20;99.90
38910;DHT22;24676;51.360;12.354;2023-12-04T08:07:21;-1.10;99.90
38910;DHT22;24676;51.360;12.354;2023-12-04T08:10:05;-1.10;99.90
38910;DHT22;24676;51.360;12.354;2023-12-04T08:12:50;-1.00;99.90
38910;DHT22;24676;51.360;12.354;2023-12-04T08:15:34;-1.00;99.90
38910;DHT22;24676;51.360;12.354;2023-12-04T08:18:18;-0.90;99.90
38910;DHT22;24676;51.360;12.354;2023-12-04T08:21:02;-0.80;99.90
38910;DHT22;24676;51.360;12.354;2023-12-04T08:23:46;-0.80;99.90
38910;DHT22;24676;51.360;12.354;2023-12-04T08:26:31;-0.70;99.90
38910;DHT22;24676;51.360;12.354;2023-12-04T08:29:15;-0.70;99.90
38910;DHT22;24676;51.360;12.354;2023-12-04T08:31:59;-0.70;99.90
38910;DHT22;24676;51.360;12.354;2023-12-04T08:34:43;-0.60;99.90
38910;DHT22;24676;51.360;12.354;2023-12-04T08:37:27;-0.60;99.90
38910;DHT22;24676;51.360;12.354;2023-12-04T08:40:12;-0.60;99.90
38910;DHT22;24676;51.360;12.354;2023-12-04T08:42:56;-0.60;99.90
38910;DHT22;24676;51.360;12.354;2023-12-04T08:45:40;-0.60;99.90
38910;DHT22;24676;51.360;12.354;2023-12-04T08:48:24;-0.70;99.90
38910;DHT22;24676;51.360;12.354;2023-12-04T08:51:14;-0.80;99.90
38910;DHT22;24676;51.360;12.354;2023-12-04T08:53:58;-0.90;99.90
38910;DHT22;24676;51.360;12.354;2023-12-04T08:56:42;-0.90;99.90
38910;DHT22;24676;51.360;12.354;2023-12-04T08:59:28;-0.90;99.90
38910;DHT22;24676;51.360;12.354;2023-12-04T09:02:12;-0.90;99.90
38910;DHT22;24676;51.360;12.354;2023-12-04T09:04:56;-0.80;99.90
38910;DHT22;24676;51.360;12.354;2023-12-04T09:07:40;-0.80;99.90
38910;DHT22;24676;51.360;12.354;2023-12-04T09:10:24;-0.70;99.90
38910;DHT22;24676;51.360;12.354;2023-12-04T09:13:09;-0.70;99.90
38910;DHT22;24676;51.360;12.354;2023-12-04T09:15:53;-0.60;99.90
38910;DHT22;24676;51.360;12.354;2023-12-04T09:18:37;-0.50;99.90
38910;DHT22;24676;51.360;12.354;2023-12-04T09:21:22;-0.40;99.90
38910;DHT22;24676;51.360;12.354;2023-12-04T09:24:06;-0.30;99.90
38910;DHT22;24676;51.360;12.354;2023-12-04T09:26:50;-0.20;99.90
38910;DHT22;24676;51.360;12.354;2023-12-04T09:29:34;-0.20;99.90
38910;DHT22;24676;51.360;12.354;2023-12-04T09:32:18;-0.20;99.90
38910;DHT22;24676;51.360;12.354;2023-12-04T09:35:03;-0.20;99.90
38910;DHT22;24676;51.360;12.354;2023-12-04T09:37:47;-0.20;99.90
38910;DHT22;24676;51.360;12.354;2023-12-04T09:40:34;-0.10;99.90
38910;DHT22;24676;51.360;12.354;2023-12-04T09:43:18;-0.20;99.90
38910;DHT22;24676;51.360;12.354;2023-12-04T09:46:02;-0.20;99.90
38910;DHT22;24676;51.360;12.354;2023-12-04T09:48:47;-0.20;99.90
38910;DHT22;24676;51.360;12.354;2023-12-04T09:51:31;-0.20;99.90
38910;DHT22;24676;51.360;12.354;2023-12-04T09:54:16;-0.20;99.90
38910;DHT22;24676;51.360;12.354;2023-12-04T09:57:00;-0.20;99.90
38910;DHT22;24676;51.360;12.354;2023-12-04T09:59:45;0.00;99.90
38910;DHT22;24676;51.360;12.354;2023-12-04T10:02:29;0.10;99.90
38910;DHT22;24676;51.360;12.354;2023-12-04T10:05:14;0.20;99.90
38910;DHT22;24676;51.360;12.354;2023-12-04T10:07:58;0.30;99.90
38910;DHT22;24676;51.360;12.354;2023-12-04T10:10:42;0.30;99.90
38910;DHT22;24676;51.360;12.354;2023-12-04T10:13:27;0.40;99.90
38910;DHT22;24676;51.360;12.354;2023-12-04T10:16:11;0.50;99.90
38910;DHT22;24676;51.360;12.354;2023-12-04T10:18:56;0.70;99.90
38910;DHT22;24676;51.360;12.354;2023-12-04T10:21:40;1.00;99.90
38910;DHT22;24676;51.360;12.354;2023-12-04T10:27:11;1.10;99.90
38910;DHT22;24676;51.360;12.354;2023-12-04T10:29:56;1.20;99.90
38910;DHT22;24676;51.360;12.354;2023-12-04T10:32:40;1.30;99.90
38910;DHT22;24676;51.360;12.354;2023-12-04T10:35:29;1.40;99.90
38910;DHT22;24676;51.360;12.354;2023-12-04T10:38:15;1.60;99.90
38910;DHT22;24676;51.360;12.354;2023-12-04T10:41:01;1.70;99.90
38910;DHT22;24676;51.360;12.354;2023-12-04T10:43:55;1.60;99.90
38910;DHT22;24676;51.360;12.354;2023-12-04T10:46:40;1.50;99.90
38910;DHT22;24676;51.360;12.354;2023-12-04T10:49:28;1.30;99.90
38910;DHT22;24676;51.360;12.354;2023-12-04T10:52:12;1.30;99.90
38910;DHT22;24676;51.360;12.354;2023-12-04T10:54:57;1.30;99.90
38910;DHT22;24676;51.360;12.354;2023-12-04T10:57:42;1.30;99.90
38910;DHT22;24676;51.360;12.354;2023-12-04T11:00:27;1.40;99.90
38910;DHT22;24676;51.360;12.354;2023-12-04T11:03:18;1.30;99.90
38910;DHT22;24676;51.360;12.354;2023-12-04T11:06:03;1.30;99.90
38910;DHT22;24676;51.360;12.354;2023-12-04T11:08:49;1.40;99.90
38910;DHT22;24676;51.360;12.354;2023-12-04T11:11:36;1.50;99.90
38910;DHT22;24676;51.360;12.354;2023-12-04T11:14:25;1.50;99.90
38910;DHT22;24676;51.360;12.354;2023-12-04T11:17:14;1.60;99.90
38910;DHT22;24676;51.360;12.354;2023-12-04T11:19:59;1.50;99.90
38910;DHT22;24676;51.360;12.354;2023-12-04T11:22:45;1.40;99.90
38910;DHT22;24676;51.360;12.354;2023-12-04T11:25:29;1.20;99.90
38910;DHT22;24676;51.360;12.354;2023-12-04T11:28:18;1.10;99.90
38910;DHT22;24676;51.360;12.354;2023-12-04T11:31:03;1.20;99.90
38910;DHT22;24676;51.360;12.354;2023-12-04T11:33:48;1.30;99.90
38910;DHT22;24676;51.360;12.354;2023-12-04T11:36:32;1.40;99.90
38910;DHT22;24676;51.360;12.354;2023-12-04T11:39:18;1.40;99.90
38910;DHT22;24676;51.360;12.354;2023-12-04T11:42:05;1.50;99.90
38910;DHT22;24676;51.360;12.354;2023-12-04T11:44:53;1.50;99.90
38910;DHT22;24676;51.360;12.354;2023-12-04T11:47:53;1.50;99.90
38910;DHT22;24676;51.360;12.354;2023-12-04T11:50:37;1.40;99.90
38910;DHT22;24676;51.360;12.354;2023-12-04T11:53:22;1.30;99.90
38910;DHT22;24676;51.360;12.354;2023-12-04T11:56:10;1.10;99.90
38910;DHT22;24676;51.360;12.354;2023-12-04T11:58:55;1.00;99.90
38910;DHT22;24676;51.360;12.354;2023-12-04T12:01:46;1.00;99.90
38910;DHT22;24676;51.360;12.354;2023-12-04T12:04:34;0.90;99.90
38910;DHT22;24676;51.360;12.354;2023-12-04T12:07:18;0.90;99.90
38910;DHT22;24676;51.360;12.354;2023-12-04T12:10:03;0.90;99.90
38910;DHT22;24676;51.360;12.354;2023-12-04T12:12:47;1.00;99.90
38910;DHT22;24676;51.360;12.354;2023-12-04T12:15:32;1.10;99.90
38910;DHT22;24676;51.360;12.354;2023-12-04T12:18:17;1.10;99.90
38910;DHT22;24676;51.360;12.354;2023-12-04T12:21:01;1.10;99.90
38910;DHT22;24676;51.360;12.354;2023-12-04T12:23:45;1.10;99.90
38910;DHT22;24676;51.360;12.354;2023-12-04T12:26:29;1.10;99.90
38910;DHT22;24676;51.360;12.354;2023-12-04T12:29:13;1.10;99.90
38910;DHT22;24676;51.360;12.354;2023-12-04T12:31:58;1.10;99.90
38910;DHT22;24676;51.360;12.354;2023-12-04T12:34:42;1.00;99.90
38910;DHT22;24676;51.360;12.354;2023-12-04T12:37:26;1.00;99.90
38910;DHT22;24676;51.360;12.354;2023-12-04T12:40:10;1.00;99.90
38910;DHT22;24676;51.360;12.354;2023-12-04T12:43:05;1.00;99.90
38910;DHT22;24676;51.360;12.354;2023-12-04T12:45:49;1.00;99.90
38910;DHT22;24676;51.360;12.354;2023-12-04T12:48:34;1.10;99.90
38910;DHT22;24676;51.360;12.354;2023-12-04T12:51:18;1.10;99.90
38910;DHT22;24676;51.360;12.354;2023-12-04T12:54:02;1.10;99.90
38910;DHT22;24676;51.360;12.354;2023-12-04T12:56:46;1.10;99.90
38910;DHT22;24676;51.360;12.354;2023-12-04T12:59:31;1.10;99.90
38910;DHT22;24676;51.360;12.354;2023-12-04T13:02:15;1.10;99.90
38910;DHT22;24676;51.360;12.354;2023-12-04T13:05:00;1.00;99.90
38910;DHT22;24676;51.360;12.354;2023-12-04T13:07:44;1.00;99.90
38910;DHT22;24676;51.360;12.354;2023-12-04T13:10:28;0.90;99.90
38910;DHT22;24676;51.360;12.354;2023-12-04T13:13:13;0.90;99.90
38910;DHT22;24676;51.360;12.354;2023-12-04T13:15:58;0.70;99.90
38910;DHT22;24676;51.360;12.354;2023-12-04T13:18:42;0.70;99.90
38910;DHT22;24676;51.360;12.354;2023-12-04T13:21:26;0.70;99.90
38910;DHT22;24676;51.360;12.354;2023-12-04T13:24:10;0.60;99.90
38910;DHT22;24676;51.360;12.354;2023-12-04T13:26:55;0.60;99.90
38910;DHT22;24676;51.360;12.354;2023-12-04T13:29:39;0.60;99.90
38910;DHT22;24676;51.360;12.354;2023-12-04T13:32:23;0.60;99.90
38910;DHT22;24676;51.360;12.354;2023-12-04T13:35:07;0.60;99.90
38910;DHT22;24676;51.360;12.354;2023-12-04T13:37:51;0.60;99.90
38910;DHT22;24676;51.360;12.354;2023-12-04T13:40:39;0.60;99.90
38910;DHT22;24676;51.360;12.354;2023-12-04T13:43:23;0.60;99.90
38910;DHT22;24676;51.360;12.354;2023-12-04T13:46:26;0.50;99.90
38910;DHT22;24676;51.360;12.354;2023-12-04T13:49:10;0.50;99.90
38910;DHT22;24676;51.360;12.354;2023-12-04T13:51:55;0.50;99.90
38910;DHT22;24676;51.360;12.354;2023-12-04T13:54:39;0.50;99.90
38910;DHT22;24676;51.360;12.354;2023-12-04T13:57:31;0.40;99.90
38910;DHT22;24676;51.360;12.354;2023-12-04T14:00:28;0.40;99.90
38910;DHT22;24676;51.360;12.354;2023-12-04T14:03:12;0.40;99.90
38910;DHT22;24676;51.360;12.354;2023-12-04T14:05:56;0.40;99.90
38910;DHT22;24676;51.360;12.354;2023-12-04T14:08:41;0.40;99.90
38910;DHT22;24676;51.360;12.354;2023-12-04T14:11:25;0.40;99.90
38910;DHT22;24676;51.360;12.354;2023-12-04T14:14:10;0.30;99.90
38910;DHT22;24676;51.360;12.354;2023-12-04T14:16:54;0.30;99.90
38910;DHT22;24676;51.360;12.354;2023-12-04T14:19:38;0.40;99.90
38910;DHT22;24676;51.360;12.354;2023-12-04T14:22:23;0.30;99.90
38910;DHT22;24676;51.360;12.354;2023-12-04T14:25:07;0.30;99.90
38910;DHT22;24676;51.360;12.354;2023-12-04T14:27:52;0.30;99.90
38910;DHT22;24676;51.360;12.354;2023-12-04T14:30:36;0.30;99.90
38910;DHT22;24676;51.360;12.354;2023-12-04T14:33:20;0.30;99.90
38910;DHT22;24676;51.360;12.354;2023-12-04T14:36:04;0.30;99.90
38910;DHT22;24676;51.360;12.354;2023-12-04T14:38:48;0.30;99.90
38910;DHT22;24676;51.360;12.354;2023-12-04T14:41:32;0.30;99.90
38910;DHT22;24676;51.360;12.354;2023-12-04T14:44:17;0.30;99.90
38910;DHT22;24676;51.360;12.354;2023-12-04T14:47:01;0.30;99.90
38910;DHT22;24676;51.360;12.354;2023-12-04T14:49:45;0.30;99.90
38910;DHT22;24676;51.360;12.354;2023-12-04T14:52:30;0.30;99.90
38910;DHT22;24676;51.360;12.354;2023-12-04T14:55:16;0.30;99.90
38910;DHT22;24676;51.360;12.354;2023-12-04T14:58:07;0.30;99.90
38910;DHT22;24676;51.360;12.354;2023-12-04T15:01:11;0.30;99.90
38910;DHT22;24676;51.360;12.354;2023-12-04T15:04:14;0.30;99.90
38910;DHT22;24676;51.360;12.354;2023-12-04T15:07:16;0.30;99.90
38910;DHT22;24676;51.360;12.354;2023-12-04T15:10:23;0.20;99.90
38910;DHT22;24676;51.360;12.354;2023-12-04T15:13:10;0.20;99.90
38910;DHT22;24676;51.360;12.354;2023-12-04T15:16:13;0.20;99.90
38910;DHT22;24676;51.360;12.354;2023-12-04T15:18:57;0.20;99.90
38910;DHT22;24676;51.360;12.354;2023-12-04T15:21:54;0.20;99.90
38910;DHT22;24676;51.360;12.354;2023-12-04T15:24:39;0.20;99.90
38910;DHT22;24676;51.360;12.354;2023-12-04T15:27:23;0.20;99.90
38910;DHT22;24676;51.360;12.354;2023-12-04T15:30:07;0.20;99.90
38910;DHT22;24676;51.360;12.354;2023-12-04T15:32:52;0.20;99.90
38910;DHT22;24676;51.360;12.354;2023-12-04T15:35:36;0.10;99.90
38910;DHT22;24676;51.360;12.354;2023-12-04T15:38:25;0.10;99.90
38910;DHT22;24676;51.360;12.354;2023-12-04T15:41:09;0.10;99.90
38910;DHT22;24676;51.360;12.354;2023-12-04T15:43:53;0.10;99.90
38910;DHT22;24676;51.360;12.354;2023-12-04T15:46:37;0.10;99.90
38910;DHT22;24676;51.360;12.354;2023-12-04T15:49:22;0.10;99.90
38910;DHT22;24676;51.360;12.354;2023-12-04T15:52:06;0.00;99.90
38910;DHT22;24676;51.360;12.354;2023-12-04T15:54:52;0.00;99.90
38910;DHT22;24676;51.360;12.354;2023-12-04T15:57:36;-0.10;99.90
38910;DHT22;24676;51.360;12.354;2023-12-04T16:00:29;-0.10;99.90
38910;DHT22;24676;51.360;12.354;2023-12-04T16:03:14;-0.20;99.90
38910;DHT22;24676;51.360;12.354;2023-12-04T16:05:58;-0.20;99.90
38910;DHT22;24676;51.360;12.354;2023-12-04T16:08:42;-0.20;99.90
38910;DHT22;24676;51.360;12.354;2023-12-04T16:11:27;-0.20;99.90
38910;DHT22;24676;51.360;12.354;2023-12-04T16:14:11;-0.30;99.90
38910;DHT22;24676;51.360;12.354;2023-12-04T16:16:55;-0.30;99.90
38910;DHT22;24676;51.360;12.354;2023-12-04T16:19:39;-0.30;99.90
38910;DHT22;24676;51.360;12.354;2023-12-04T16:22:23;-0.30;99.90
38910;DHT22;24676;51.360;12.354;2023-12-04T16:25:08;-0.30;99.90
38910;DHT22;24676;51.360;12.354;2023-12-04T16:27:53;-0.30;99.90
38910;DHT22;24676;51.360;12.354;2023-12-04T16:30:37;-0.30;99.90
38910;DHT22;24676;51.360;12.354;2023-12-04T16:33:22;-0.40;99.90
38910;DHT22;24676;51.360;12.354;2023-12-04T16:36:06;-0.40;99.90
38910;DHT22;24676;51.360;12.354;2023-12-04T16:38:51;-0.40;99.90
38910;DHT22;24676;51.360;12.354;2023-12-04T16:41:35;-0.40;99.90
38910;DHT22;24676;51.360;12.354;2023-12-04T16:44:22;-0.40;99.90
38910;DHT22;24676;51.360;12.354;2023-12-04T16:47:06;-0.40;99.90
38910;DHT22;24676;51.360;12.354;2023-12-04T16:49:50;-0.40;99.90
38910;DHT22;24676;51.360;12.354;2023-12-04T16:52:34;-0.50;99.90
38910;DHT22;24676;51.360;12.354;2023-12-04T16:55:19;-0.50;99.90
38910;DHT22;24676;51.360;12.354;2023-12-04T16:58:03;-0.50;99.90
38910;DHT22;24676;51.360;12.354;2023-12-04T17:00:50;-0.50;99.90
38910;DHT22;24676;51.360;12.354;2023-12-04T17:03:34;-0.50;99.90
38910;DHT22;24676;51.360;12.354;2023-12-04T17:06:18;-0.60;99.90
38910;DHT22;24676;51.360;12.354;2023-12-04T17:09:03;-0.50;99.90
38910;DHT22;24676;51.360;12.354;2023-12-04T17:11:48;-0.60;99.90
38910;DHT22;24676;51.360;12.354;2023-12-04T17:14:32;-0.60;99.90